createdAt,value
2017-12-12T00:01:48.812Z,4.37
2017-12-12T00:04:16.276Z,5.00
2017-12-12T00:06:43.707Z,3.60
2017-12-12T00:09:11.156Z,2.73
2017-12-12T00:11:38.633Z,3.63
2017-12-12T00:14:06.154Z,2.23
2017-12-12T00:16:33.608Z,2.37
2017-12-12T00:19:01.060Z,2.70
2017-12-12T00:21:28.518Z,2.20
2017-12-12T00:23:55.977Z,2.30
2017-12-12T00:26:23.649Z,2.83
2017-12-12T00:28:51.186Z,2.17
2017-12-12T00:37:09.101Z,1.83
2017-12-12T00:39:57.390Z,3.63
2017-12-12T00:42:24.838Z,2.00
2017-12-12T00:44:52.297Z,2.27
2017-12-12T00:47:19.735Z,2.43
2017-12-12T00:49:47.181Z,1.50
2017-12-12T00:52:15.001Z,1.90
2017-12-12T00:54:42.481Z,2.00
2017-12-12T00:57:09.949Z,2.93
2017-12-12T00:59:37.397Z,2.13
2017-12-12T01:02:04.886Z,2.13
2017-12-12T01:04:32.332Z,2.67
2017-12-12T01:06:59.819Z,3.10
2017-12-12T01:09:27.302Z,2.20
2017-12-12T01:11:54.767Z,5.83
2017-12-12T01:14:22.244Z,2.70
2017-12-12T01:16:49.701Z,3.10
2017-12-12T01:19:17.287Z,3.43
2017-12-12T01:21:44.748Z,2.87
2017-12-12T01:24:12.184Z,2.23
2017-12-12T01:26:39.687Z,2.27
2017-12-12T01:29:07.157Z,1.80
2017-12-12T01:31:34.631Z,1.73
2017-12-12T01:34:02.085Z,1.97
2017-12-12T01:36:29.525Z,3.07
2017-12-12T01:38:57.028Z,1.93
2017-12-12T01:41:24.492Z,1.50
2017-12-12T01:43:51.933Z,1.43
2017-12-12T01:46:19.390Z,2.93
2017-12-12T01:48:46.920Z,1.50
2017-12-12T01:51:14.365Z,1.47
2017-12-12T01:53:41.818Z,1.97
2017-12-12T01:56:09.326Z,2.47
2017-12-12T01:58:36.800Z,1.73
2017-12-12T02:01:04.240Z,1.67
2017-12-12T02:03:31.753Z,2.37
2017-12-12T02:05:59.196Z,2.17
2017-12-12T02:08:26.695Z,2.53
2017-12-12T02:10:54.144Z,2.70
2017-12-12T02:13:21.610Z,2.70
2017-12-12T02:15:49.055Z,2.33
2017-12-12T02:18:16.857Z,3.27
2017-12-12T02:20:44.343Z,2.50
2017-12-12T02:23:11.810Z,2.53
2017-12-12T02:25:39.254Z,3.03
2017-12-12T02:28:06.746Z,2.20
2017-12-12T02:30:34.239Z,2.13
2017-12-12T02:33:01.683Z,2.60
2017-12-12T02:35:29.161Z,1.97
2017-12-12T02:37:56.667Z,2.53
2017-12-12T02:40:24.136Z,2.90
2017-12-12T02:42:51.675Z,1.67
2017-12-12T02:45:19.133Z,1.57
2017-12-12T02:47:46.618Z,2.73
2017-12-12T02:50:14.071Z,3.73
2017-12-12T02:52:41.578Z,2.93
2017-12-12T02:55:09.031Z,4.37
2017-12-12T02:57:36.489Z,3.30
2017-12-12T03:00:03.936Z,3.00
2017-12-12T03:02:31.453Z,3.27
2017-12-12T03:04:59.019Z,3.97
2017-12-12T03:07:26.505Z,3.90
2017-12-12T03:09:53.953Z,3.17
2017-12-12T03:12:21.420Z,3.33
2017-12-12T03:14:48.899Z,2.00
2017-12-12T03:17:16.357Z,2.00
2017-12-12T03:19:43.797Z,1.60
2017-12-12T03:22:11.252Z,1.40
2017-12-12T03:24:38.766Z,1.37
2017-12-12T03:27:06.333Z,0.83
2017-12-12T03:29:33.791Z,2.97
2017-12-12T03:32:01.238Z,0.90
2017-12-12T03:34:28.759Z,0.70
2017-12-12T03:36:56.206Z,1.60
2017-12-12T03:39:23.684Z,0.80
2017-12-12T03:41:51.133Z,0.90
2017-12-12T03:44:18.657Z,1.10
2017-12-12T03:46:46.092Z,0.73
2017-12-12T03:49:13.556Z,0.70
2017-12-12T03:51:41.012Z,1.13
2017-12-12T03:54:08.518Z,1.60
2017-12-12T03:56:36.068Z,1.00
2017-12-12T03:59:03.513Z,0.60
2017-12-12T04:01:31.011Z,2.43
2017-12-12T04:03:58.479Z,1.73
2017-12-12T04:06:25.935Z,4.67
2017-12-12T04:08:53.421Z,3.13
2017-12-12T04:11:20.907Z,2.97
2017-12-12T04:13:48.483Z,2.67
2017-12-12T04:16:16.042Z,3.57
2017-12-12T04:18:43.489Z,4.47
2017-12-12T04:21:10.986Z,4.03
2017-12-12T04:23:38.425Z,2.60
2017-12-12T04:26:05.873Z,3.37
2017-12-12T04:28:33.348Z,4.50
2017-12-12T04:31:00.855Z,6.07
2017-12-12T04:33:28.356Z,5.73
2017-12-12T04:35:55.793Z,4.10
2017-12-12T04:38:23.253Z,5.10
2017-12-12T04:40:50.709Z,4.73
2017-12-12T04:43:18.202Z,5.40
2017-12-12T04:45:45.645Z,4.67
2017-12-12T04:48:13.100Z,5.27
2017-12-12T04:50:40.571Z,6.50
2017-12-12T04:53:08.103Z,4.63
2017-12-12T04:55:35.550Z,4.07
2017-12-12T04:58:02.992Z,4.20
2017-12-12T05:00:30.487Z,4.67
2017-12-12T05:02:57.960Z,4.73
2017-12-12T05:05:25.430Z,4.40
2017-12-12T05:07:52.889Z,4.93
2017-12-12T05:10:20.473Z,6.27
2017-12-12T05:12:48.929Z,4.00
2017-12-12T05:15:16.394Z,3.77
2017-12-12T05:17:43.844Z,1.70
2017-12-12T05:20:11.326Z,1.53
2017-12-12T05:22:38.763Z,1.13
2017-12-12T05:25:06.317Z,1.03
2017-12-12T05:27:33.790Z,1.37
2017-12-12T05:30:01.242Z,0.80
2017-12-12T05:32:28.725Z,0.70
2017-12-12T05:34:56.198Z,0.93
2017-12-12T05:37:23.638Z,0.80
2017-12-12T05:39:51.576Z,1.10
2017-12-12T05:42:19.073Z,0.90
2017-12-12T05:44:46.658Z,1.07
2017-12-12T05:47:14.151Z,0.90
2017-12-12T05:49:41.728Z,1.37
2017-12-12T05:52:09.188Z,1.30
2017-12-12T05:54:36.629Z,0.90
2017-12-12T05:57:04.135Z,2.40
2017-12-12T05:59:31.580Z,0.73
2017-12-12T06:01:59.036Z,1.20
2017-12-12T06:04:26.488Z,1.10
2017-12-12T06:06:53.939Z,1.93
2017-12-12T06:09:21.503Z,0.67
2017-12-12T06:11:49.012Z,0.80
2017-12-12T06:14:16.549Z,0.97
2017-12-12T06:16:44.077Z,1.20
2017-12-12T06:19:11.584Z,2.47
2017-12-12T06:21:39.053Z,1.63
2017-12-12T06:24:06.491Z,1.10
2017-12-12T06:26:33.925Z,1.07
2017-12-12T06:29:01.449Z,1.03
2017-12-12T06:31:28.954Z,0.90
2017-12-12T06:33:56.422Z,0.90
2017-12-12T06:36:23.970Z,0.87
2017-12-12T06:38:51.542Z,1.00
2017-12-12T06:41:18.992Z,0.77
2017-12-12T06:43:46.437Z,0.70
2017-12-12T06:46:13.874Z,0.60
2017-12-12T06:48:41.316Z,0.87
2017-12-12T06:51:08.866Z,0.70
2017-12-12T06:53:42.116Z,2.00
2017-12-12T06:56:09.553Z,0.70
2017-12-12T06:58:37.136Z,1.20
2017-12-12T07:01:04.702Z,1.20
2017-12-12T07:03:32.151Z,1.57
2017-12-12T07:05:59.604Z,1.70
2017-12-12T07:08:27.045Z,0.70
2017-12-12T07:10:54.493Z,0.70
2017-12-12T07:13:21.940Z,1.90
2017-12-12T07:15:49.399Z,1.23
2017-12-12T07:18:16.845Z,1.10
2017-12-12T07:20:44.318Z,0.70
2017-12-12T07:23:11.815Z,0.80
2017-12-12T07:25:39.293Z,0.60
2017-12-12T07:28:06.773Z,0.80
2017-12-12T07:30:34.244Z,0.97
2017-12-12T07:33:01.689Z,0.73
2017-12-12T07:35:29.177Z,0.80
2017-12-12T07:37:56.748Z,1.30
2017-12-12T07:40:24.209Z,1.07
2017-12-12T07:42:51.732Z,0.87
2017-12-12T07:45:19.272Z,0.50
2017-12-12T07:47:46.752Z,0.80
2017-12-12T07:50:14.203Z,2.07
2017-12-12T07:52:41.667Z,0.87
2017-12-12T07:55:09.114Z,0.47
2017-12-12T07:57:36.560Z,0.80
2017-12-12T08:00:04.011Z,1.00
2017-12-12T08:02:31.561Z,2.73
2017-12-12T08:04:59.008Z,9.77
2017-12-12T08:07:26.446Z,1.37
2017-12-12T08:09:53.911Z,1.60
2017-12-12T08:12:21.363Z,5.57
2017-12-12T08:14:48.824Z,3.93
2017-12-12T08:17:16.274Z,2.57
2017-12-12T08:19:43.733Z,0.87
2017-12-12T08:22:11.170Z,0.80
2017-12-12T08:24:38.686Z,1.27
2017-12-12T08:27:06.203Z,1.50
2017-12-12T08:29:33.659Z,1.90
2017-12-12T08:32:01.121Z,1.50
2017-12-12T08:34:28.568Z,2.43
2017-12-12T08:36:56.025Z,1.30
2017-12-12T08:39:23.470Z,1.43
2017-12-12T08:41:50.991Z,2.70
2017-12-12T08:44:18.448Z,2.53
2017-12-12T08:46:45.901Z,1.10
2017-12-12T08:49:13.363Z,1.20
2017-12-12T08:51:40.823Z,1.40
2017-12-12T08:54:08.304Z,1.30
2017-12-12T08:56:36.080Z,1.30
2017-12-12T08:59:03.566Z,1.33
2017-12-12T09:01:31.021Z,1.10
2017-12-12T09:03:58.475Z,2.03
2017-12-12T09:06:25.921Z,2.97
2017-12-12T09:08:53.408Z,1.37
2017-12-12T09:11:20.873Z,1.20
2017-12-12T09:13:48.374Z,1.40
2017-12-12T09:16:15.848Z,1.40
2017-12-12T09:18:43.306Z,2.00
2017-12-12T09:21:10.744Z,1.53
2017-12-12T09:23:38.212Z,3.30
2017-12-12T09:26:05.663Z,1.90
2017-12-12T09:28:33.128Z,1.67
2017-12-12T09:31:00.574Z,2.47
2017-12-12T09:33:28.039Z,1.47
2017-12-12T09:35:55.608Z,3.33
2017-12-12T09:38:23.084Z,1.90
2017-12-12T09:40:50.807Z,2.63
2017-12-12T09:43:18.322Z,3.87
2017-12-12T09:45:45.801Z,1.37
2017-12-12T09:48:13.245Z,1.83
2017-12-12T09:50:40.726Z,1.40
2017-12-12T09:53:08.200Z,1.93
2017-12-12T09:55:35.651Z,1.30
2017-12-12T09:58:03.100Z,2.20
2017-12-12T10:00:30.570Z,1.80
2017-12-12T10:02:58.006Z,4.73
2017-12-12T10:05:25.480Z,0.77
2017-12-12T10:07:53.023Z,0.93
2017-12-12T10:10:20.449Z,0.67
2017-12-12T10:12:47.941Z,1.57
2017-12-12T10:15:15.422Z,1.60
2017-12-12T10:17:42.909Z,1.30
2017-12-12T10:20:10.342Z,1.87
2017-12-12T10:22:37.793Z,1.23
2017-12-12T10:25:05.236Z,1.73
2017-12-12T10:27:32.685Z,1.13
2017-12-12T10:30:00.120Z,1.97
2017-12-12T10:32:27.623Z,1.47
2017-12-12T10:34:55.070Z,2.00
2017-12-12T10:37:22.603Z,1.47
2017-12-12T10:39:50.068Z,1.07
2017-12-12T10:42:17.551Z,1.30
2017-12-12T10:44:45.029Z,1.17
2017-12-12T10:47:12.462Z,1.00
2017-12-12T10:49:39.922Z,1.50
2017-12-12T10:52:07.368Z,1.40
2017-12-12T10:54:34.968Z,1.27
2017-12-12T10:57:02.394Z,1.00
2017-12-12T10:59:29.859Z,1.20
2017-12-12T11:01:57.302Z,1.77
2017-12-12T11:04:24.741Z,1.53
2017-12-12T11:06:52.213Z,2.00
2017-12-12T11:09:19.770Z,1.60
2017-12-12T11:11:47.227Z,1.50
2017-12-12T11:14:14.675Z,1.20
2017-12-12T11:16:42.130Z,2.63
2017-12-12T11:19:09.604Z,1.40
2017-12-12T11:21:37.093Z,1.30
2017-12-12T11:24:04.786Z,1.70
2017-12-12T11:26:32.245Z,1.60
2017-12-12T11:28:59.683Z,1.43
2017-12-12T11:31:27.170Z,1.50
2017-12-12T11:33:54.630Z,1.90
2017-12-12T11:36:22.091Z,3.33
2017-12-12T11:38:49.541Z,2.20
2017-12-12T11:41:16.992Z,2.33
2017-12-12T11:43:44.462Z,1.83
2017-12-12T11:46:11.927Z,1.80
2017-12-12T11:48:39.503Z,1.97
2017-12-12T11:51:06.943Z,2.13
2017-12-12T11:53:34.428Z,1.90
2017-12-12T11:56:01.861Z,1.60
2017-12-12T11:58:29.323Z,1.50
2017-12-12T12:00:56.808Z,2.73
2017-12-12T12:03:24.275Z,1.93
2017-12-12T12:05:51.739Z,1.80
2017-12-12T12:08:19.297Z,1.73
2017-12-12T12:10:46.761Z,1.27
2017-12-12T12:13:14.212Z,1.87
2017-12-12T12:15:41.790Z,1.67
2017-12-12T12:18:09.286Z,1.40
2017-12-12T12:20:36.754Z,4.70
2017-12-12T12:23:04.225Z,2.37
2017-12-12T12:25:31.676Z,1.73
2017-12-12T12:27:59.241Z,2.17
2017-12-12T12:30:26.894Z,1.93
2017-12-12T12:32:54.447Z,1.90
2017-12-12T12:35:21.920Z,1.90
2017-12-12T12:37:49.381Z,1.90
2017-12-12T12:40:16.921Z,2.87
2017-12-12T12:42:44.402Z,2.07
2017-12-12T12:45:11.851Z,1.97
2017-12-12T12:47:39.343Z,2.40
2017-12-12T12:50:06.805Z,3.00
2017-12-12T12:52:34.296Z,2.30
2017-12-12T12:55:01.782Z,3.10
2017-12-12T12:57:29.226Z,1.67
2017-12-12T12:59:56.752Z,2.00
2017-12-12T13:02:24.304Z,2.43
2017-12-12T13:04:51.919Z,2.57
2017-12-12T13:07:19.464Z,2.30
2017-12-12T13:09:46.917Z,3.30
2017-12-12T13:12:14.365Z,5.37
2017-12-12T13:14:41.843Z,1.57
2017-12-12T13:17:09.275Z,2.57
2017-12-12T13:19:36.738Z,1.87
2017-12-12T13:22:04.251Z,2.20
2017-12-12T13:24:31.696Z,2.90
2017-12-12T13:26:59.205Z,2.30
2017-12-12T13:29:26.670Z,2.70
2017-12-12T13:31:54.135Z,2.30
2017-12-12T13:34:21.564Z,6.33
2017-12-12T13:36:49.180Z,2.20
2017-12-12T13:39:16.628Z,3.00
2017-12-12T13:41:44.116Z,2.77
2017-12-12T13:44:11.583Z,3.43
2017-12-12T13:46:39.022Z,3.13
2017-12-12T13:49:06.469Z,3.10
2017-12-12T13:51:34.000Z,3.93
2017-12-12T13:54:01.574Z,2.40
2017-12-12T13:56:29.019Z,4.77
2017-12-12T13:58:56.497Z,3.27
2017-12-12T14:01:23.934Z,4.07
2017-12-12T14:03:51.449Z,4.60
2017-12-12T14:06:19.391Z,6.90
2017-12-12T14:08:46.848Z,3.57
2017-12-12T14:11:14.331Z,3.63
2017-12-12T14:13:41.780Z,8.90
2017-12-12T14:16:09.258Z,7.20
2017-12-12T14:18:36.777Z,4.60
2017-12-12T14:21:04.261Z,9.47
2017-12-12T14:23:32.159Z,2.90
2017-12-12T14:25:59.580Z,4.90
2017-12-12T14:28:27.033Z,4.33
2017-12-12T14:30:54.470Z,2.90
2017-12-12T14:33:21.950Z,4.10
2017-12-12T14:35:49.448Z,3.80
2017-12-12T14:38:16.925Z,4.10
2017-12-12T14:40:45.200Z,5.97
2017-12-12T14:43:12.649Z,6.00
2017-12-12T14:45:40.089Z,2.53
2017-12-12T14:48:07.526Z,4.60
2017-12-12T14:50:35.022Z,2.97
2017-12-12T14:53:02.488Z,5.77
2017-12-12T14:55:29.964Z,2.80
2017-12-12T14:57:57.428Z,5.40
2017-12-12T15:00:24.893Z,4.00
2017-12-12T15:02:52.368Z,2.93
2017-12-12T15:05:19.926Z,3.63
2017-12-12T15:07:47.381Z,5.67
2017-12-12T15:10:14.859Z,6.77
2017-12-12T15:12:42.326Z,3.07
2017-12-12T15:15:09.927Z,4.87
2017-12-12T15:17:37.383Z,3.90
2017-12-12T15:20:04.852Z,5.80
2017-12-12T15:22:32.309Z,2.53
2017-12-12T15:24:59.758Z,5.60
2017-12-12T15:27:27.205Z,2.27
2017-12-12T15:29:54.661Z,2.87
2017-12-12T15:32:22.133Z,2.33
2017-12-12T15:34:49.614Z,5.63
2017-12-12T15:37:17.065Z,3.97
2017-12-12T15:39:44.510Z,2.50
2017-12-12T15:42:11.952Z,2.60
2017-12-12T15:44:39.401Z,3.40
2017-12-12T15:47:06.892Z,4.57
2017-12-12T15:49:34.472Z,2.60
2017-12-12T15:52:01.934Z,5.73
2017-12-12T15:54:29.428Z,4.03
2017-12-12T15:56:56.905Z,3.87
2017-12-12T15:59:24.375Z,4.90
2017-12-12T16:01:55.609Z,3.57
2017-12-12T16:04:23.070Z,5.60
2017-12-12T16:06:50.643Z,3.03
2017-12-12T16:09:18.093Z,5.33
2017-12-12T16:11:45.539Z,5.07
2017-12-12T16:14:13.000Z,3.03
2017-12-12T16:16:40.461Z,4.07
2017-12-12T16:19:07.907Z,5.40
2017-12-12T16:21:35.439Z,4.03
2017-12-12T16:24:02.958Z,3.23
2017-12-12T16:26:30.421Z,2.80
2017-12-12T16:28:57.886Z,3.77
2017-12-12T16:31:26.574Z,3.07
2017-12-12T16:33:54.018Z,5.93
2017-12-12T16:36:21.517Z,2.90
2017-12-12T16:38:48.977Z,3.37
2017-12-12T16:41:16.443Z,3.23
2017-12-12T16:43:43.888Z,3.37
2017-12-12T16:46:11.335Z,4.47
2017-12-12T16:48:38.785Z,6.43
2017-12-12T16:51:06.550Z,3.77
2017-12-12T16:53:34.029Z,6.80
2017-12-12T16:56:01.485Z,3.10
2017-12-12T16:58:28.951Z,2.93
2017-12-12T17:00:56.407Z,4.37
2017-12-12T17:03:23.882Z,3.57
2017-12-12T17:05:51.370Z,4.17
2017-12-12T17:08:18.845Z,4.30
2017-12-12T17:10:46.309Z,6.20
2017-12-12T17:13:13.779Z,5.57
2017-12-12T17:15:41.221Z,4.10
2017-12-12T17:18:08.696Z,6.43
2017-12-12T17:20:36.141Z,2.87
2017-12-12T17:23:03.580Z,2.77
2017-12-12T17:25:31.038Z,3.50
2017-12-12T17:27:58.487Z,3.27
2017-12-12T17:30:25.964Z,4.20
2017-12-12T17:32:53.467Z,3.63
2017-12-12T17:35:20.920Z,4.83
2017-12-12T17:37:48.373Z,4.57
2017-12-12T17:40:15.845Z,2.97
2017-12-12T17:42:43.276Z,4.77
2017-12-12T17:45:10.793Z,3.43
2017-12-12T17:47:38.247Z,5.37
2017-12-12T17:50:05.743Z,4.07
2017-12-12T17:52:33.288Z,4.57
2017-12-12T17:55:00.731Z,3.80
2017-12-12T17:57:28.200Z,3.37
2017-12-12T17:59:55.697Z,4.40
2017-12-12T18:02:23.154Z,3.37
2017-12-12T18:04:50.617Z,5.00
2017-12-12T18:07:18.101Z,4.87
2017-12-12T18:09:45.547Z,3.20
2017-12-12T18:12:13.024Z,6.90
2017-12-12T18:14:40.614Z,3.57
2017-12-12T18:17:08.083Z,4.47
2017-12-12T18:19:35.596Z,5.23
2017-12-12T18:22:03.071Z,5.23
2017-12-12T18:24:30.797Z,4.07
2017-12-12T18:26:58.250Z,3.43
2017-12-12T18:29:25.757Z,2.83
2017-12-12T18:31:53.210Z,4.10
2017-12-12T18:34:20.683Z,3.50
2017-12-12T18:36:48.165Z,3.17
2017-12-12T18:39:15.614Z,3.20
2017-12-12T18:41:43.064Z,5.00
2017-12-12T18:44:10.529Z,4.37
2017-12-12T18:46:37.989Z,4.27
2017-12-12T18:49:05.432Z,4.67
2017-12-12T18:51:32.894Z,2.87
2017-12-12T18:54:00.434Z,2.80
2017-12-12T18:56:27.910Z,5.03
2017-12-12T18:58:55.383Z,8.40
2017-12-12T19:01:22.872Z,2.83
2017-12-12T19:03:50.351Z,5.20
2017-12-12T19:06:17.917Z,3.30
2017-12-12T19:08:45.369Z,3.10
2017-12-12T19:11:12.943Z,2.77
2017-12-12T19:13:40.404Z,4.17
2017-12-12T19:16:08.295Z,2.63
2017-12-12T19:18:35.776Z,5.67
2017-12-12T19:21:03.235Z,2.67
2017-12-12T19:23:30.694Z,9.23
2017-12-12T19:25:58.180Z,4.67
2017-12-12T19:28:25.666Z,3.30
2017-12-12T19:30:53.270Z,2.13
2017-12-12T19:33:20.777Z,2.63
2017-12-12T19:35:48.292Z,4.37
2017-12-12T19:38:16.406Z,2.77
2017-12-12T19:40:43.888Z,4.23
2017-12-12T19:43:11.438Z,2.90
2017-12-12T19:45:38.974Z,2.63
2017-12-12T19:48:06.476Z,3.50
2017-12-12T19:50:34.035Z,3.03
2017-12-12T19:53:01.470Z,3.53
2017-12-12T19:55:28.961Z,2.83
2017-12-12T19:57:56.524Z,3.43
2017-12-12T20:00:23.985Z,2.63
2017-12-12T20:02:51.488Z,3.67
2017-12-12T20:05:19.075Z,5.83
2017-12-12T20:07:46.510Z,5.43
2017-12-12T20:10:14.106Z,3.83
2017-12-12T20:12:41.636Z,3.27
2017-12-12T20:15:09.080Z,4.60
2017-12-12T20:17:36.574Z,4.33
2017-12-12T20:20:04.097Z,3.63
2017-12-12T20:22:31.663Z,5.83
2017-12-12T20:24:59.147Z,2.77
2017-12-12T20:27:26.661Z,4.53
2017-12-12T20:29:54.091Z,3.43
2017-12-12T20:32:21.613Z,3.37
2017-12-12T20:34:49.177Z,3.37
2017-12-12T20:37:16.637Z,3.80
2017-12-12T20:39:44.098Z,3.47
2017-12-12T20:42:11.552Z,3.33
2017-12-12T20:44:39.100Z,3.57
2017-12-12T20:47:06.548Z,4.67
2017-12-12T20:49:33.989Z,3.30
2017-12-12T20:52:01.648Z,3.33
2017-12-12T20:54:29.203Z,4.73
2017-12-12T20:56:56.713Z,4.27
2017-12-12T20:59:24.356Z,5.60
2017-12-12T21:01:51.986Z,5.53
2017-12-12T21:04:19.583Z,3.23
2017-12-12T21:06:47.079Z,3.30
2017-12-12T21:09:14.524Z,2.87
2017-12-12T21:11:41.960Z,3.70
2017-12-12T21:14:09.392Z,3.17
2017-12-12T21:16:36.835Z,2.80
2017-12-12T21:19:04.309Z,5.97
2017-12-12T21:21:31.844Z,3.23
2017-12-12T21:23:59.422Z,3.10
2017-12-12T21:26:26.890Z,3.27
2017-12-12T21:28:54.404Z,3.60
2017-12-12T21:31:21.923Z,3.20
2017-12-12T21:33:49.363Z,4.50
2017-12-12T21:36:16.859Z,4.03
2017-12-12T21:38:44.460Z,4.47
2017-12-12T21:41:11.955Z,3.97
2017-12-12T21:43:39.406Z,3.63
2017-12-12T21:46:06.974Z,3.83
2017-12-12T21:48:34.472Z,3.87
2017-12-12T21:51:01.922Z,4.23
2017-12-12T21:53:29.445Z,3.80
2017-12-12T21:55:56.954Z,4.80
2017-12-12T21:58:24.409Z,3.20
2017-12-12T22:00:51.920Z,3.30
2017-12-12T22:03:19.380Z,3.87
2017-12-12T22:05:46.912Z,3.73
2017-12-12T22:08:14.459Z,4.23
2017-12-12T22:10:41.984Z,3.10
2017-12-12T22:13:09.449Z,3.77
2017-12-12T22:15:36.938Z,4.27
2017-12-12T22:18:04.480Z,4.57
2017-12-12T22:20:32.055Z,3.40
2017-12-12T22:22:59.598Z,5.27
2017-12-12T22:25:27.083Z,4.17
2017-12-12T22:27:54.582Z,4.50
2017-12-12T22:30:22.078Z,3.40
2017-12-12T22:32:49.570Z,4.77
2017-12-12T22:35:16.996Z,5.03
2017-12-12T22:37:44.503Z,3.67
2017-12-12T22:40:12.016Z,5.83
2017-12-12T22:42:39.489Z,4.47
2017-12-12T22:45:07.056Z,7.93
2017-12-12T22:50:25.273Z,3.50
2017-12-12T22:52:52.761Z,6.73
2017-12-12T22:55:20.245Z,6.07
2017-12-12T22:57:47.782Z,4.87
2017-12-12T23:00:20.995Z,3.80
2017-12-12T23:02:48.475Z,4.00
2017-12-12T23:05:15.969Z,4.03
2017-12-12T23:07:43.431Z,5.67
2017-12-12T23:10:10.897Z,4.53
2017-12-12T23:12:38.336Z,3.60
2017-12-12T23:15:05.829Z,4.00
2017-12-12T23:17:33.345Z,4.30
2017-12-12T23:20:00.826Z,3.77
2017-12-12T23:22:28.260Z,4.00
2017-12-12T23:24:55.776Z,4.00
2017-12-12T23:27:23.246Z,6.87
2017-12-12T23:29:50.691Z,4.63
2017-12-12T23:32:18.154Z,4.03
2017-12-12T23:34:45.695Z,6.13
2017-12-12T23:37:13.167Z,4.80
2017-12-12T23:39:40.608Z,4.80
2017-12-12T23:42:08.066Z,5.17
2017-12-12T23:44:35.584Z,6.13
2017-12-12T23:47:03.047Z,5.30
2017-12-12T23:49:30.528Z,4.53
2017-12-12T23:51:58.084Z,5.73
2017-12-12T23:54:25.636Z,5.20
2017-12-12T23:56:53.082Z,4.53
2017-12-12T23:59:20.535Z,11.63
